sensor_id;sensor_type;location;lat;lon;timestamp;P1;durP1;ratioP1;P2;durP2;ratioP2
5702;SDS011;2876;51.738;10.050;2023-07-29T00:03:42;1.80;;;1.70;;
5702;SDS011;2876;51.738;10.050;2023-07-29T00:09:44;4.10;;;2.43;;
5702;SDS011;2876;51.738;10.050;2023-07-29T00:15:46;11.03;;;2.50;;
5702;SDS011;2876;51.738;10.050;2023-07-29T00:21:48;6.53;;;1.60;;
5702;SDS011;2876;51.738;10.050;2023-07-29T00:27:50;4.63;;;1.97;;
5702;SDS011;2876;51.738;10.050;2023-07-29T00:33:52;2.40;;;2.10;;
5702;SDS011;2876;51.738;10.050;2023-07-29T00:39:54;5.93;;;2.50;;
5702;SDS011;2876;51.738;10.050;2023-07-29T00:45:56;3.07;;;1.87;;
5702;SDS011;2876;51.738;10.050;2023-07-29T00:51:59;2.50;;;2.30;;
5702;SDS011;2876;51.738;10.050;2023-07-29T00:58:01;5.60;;;2.70;;
5702;SDS011;2876;51.738;10.050;2023-07-29T01:04:03;4.40;;;2.40;;
5702;SDS011;2876;51.738;10.050;2023-07-29T01:10:56;3.10;;;1.97;;
5702;SDS011;2876;51.738;10.050;2023-07-29T01:16:47;3.93;;;3.03;;
5702;SDS011;2876;51.738;10.050;2023-07-29T01:22:56;2.57;;;2.37;;
5702;SDS011;2876;51.738;10.050;2023-07-29T01:28:58;4.60;;;2.40;;
5702;SDS011;2876;51.738;10.050;2023-07-29T01:35:14;5.13;;;2.27;;
5702;SDS011;2876;51.738;10.050;2023-07-29T01:41:43;2.20;;;2.00;;
5702;SDS011;2876;51.738;10.050;2023-07-29T01:47:47;2.47;;;2.27;;
5702;SDS011;2876;51.738;10.050;2023-07-29T01:53:49;9.20;;;2.77;;
5702;SDS011;2876;51.738;10.050;2023-07-29T01:59:51;2.83;;;2.50;;
5702;SDS011;2876;51.738;10.050;2023-07-29T02:05:53;3.20;;;2.53;;
5702;SDS011;2876;51.738;10.050;2023-07-29T02:11:55;3.00;;;2.80;;
5702;SDS011;2876;51.738;10.050;2023-07-29T02:17:57;2.53;;;2.33;;
5702;SDS011;2876;51.738;10.050;2023-07-29T02:24:00;2.67;;;2.47;;
5702;SDS011;2876;51.738;10.050;2023-07-29T02:30:02;2.50;;;2.30;;
5702;SDS011;2876;51.738;10.050;2023-07-29T02:36:05;2.93;;;2.73;;
5702;SDS011;2876;51.738;10.050;2023-07-29T02:42:07;2.33;;;2.23;;
5702;SDS011;2876;51.738;10.050;2023-07-29T02:48:09;5.80;;;2.00;;
5702;SDS011;2876;51.738;10.050;2023-07-29T02:54:11;3.30;;;3.00;;
5702;SDS011;2876;51.738;10.050;2023-07-29T03:00:13;4.33;;;3.13;;
5702;SDS011;2876;51.738;10.050;2023-07-29T03:06:16;5.87;;;2.47;;
5702;SDS011;2876;51.738;10.050;2023-07-29T03:12:18;3.30;;;2.80;;
5702;SDS011;2876;51.738;10.050;2023-07-29T03:18:20;6.50;;;2.37;;
5702;SDS011;2876;51.738;10.050;2023-07-29T03:24:22;2.50;;;2.30;;
5702;SDS011;2876;51.738;10.050;2023-07-29T03:30:24;2.70;;;2.40;;
5702;SDS011;2876;51.738;10.050;2023-07-29T03:36:26;4.47;;;2.33;;
5702;SDS011;2876;51.738;10.050;2023-07-29T03:42:28;6.83;;;2.50;;
5702;SDS011;2876;51.738;10.050;2023-07-29T03:48:30;3.20;;;2.43;;
5702;SDS011;2876;51.738;10.050;2023-07-29T03:54:32;3.70;;;2.33;;
5702;SDS011;2876;51.738;10.050;2023-07-29T04:00:34;8.70;;;2.30;;
5702;SDS011;2876;51.738;10.050;2023-07-29T04:06:36;7.03;;;2.77;;
5702;SDS011;2876;51.738;10.050;2023-07-29T04:12:39;2.40;;;2.20;;
5702;SDS011;2876;51.738;10.050;2023-07-29T04:18:41;2.63;;;2.27;;
5702;SDS011;2876;51.738;10.050;2023-07-29T04:24:43;3.07;;;2.37;;
5702;SDS011;2876;51.738;10.050;2023-07-29T04:30:45;6.13;;;2.33;;
5702;SDS011;2876;51.738;10.050;2023-07-29T04:36:47;6.40;;;2.50;;
5702;SDS011;2876;51.738;10.050;2023-07-29T04:42:50;3.80;;;2.20;;
5702;SDS011;2876;51.738;10.050;2023-07-29T04:48:52;3.23;;;2.40;;
5702;SDS011;2876;51.738;10.050;2023-07-29T04:54:54;4.70;;;2.50;;
5702;SDS011;2876;51.738;10.050;2023-07-29T05:00:56;6.13;;;2.63;;
5702;SDS011;2876;51.738;10.050;2023-07-29T05:06:58;3.13;;;2.30;;
5702;SDS011;2876;51.738;10.050;2023-07-29T05:13:00;4.80;;;2.60;;
5702;SDS011;2876;51.738;10.050;2023-07-29T05:19:02;7.33;;;2.63;;
5702;SDS011;2876;51.738;10.050;2023-07-29T05:25:04;7.63;;;3.27;;
5702;SDS011;2876;51.738;10.050;2023-07-29T05:31:07;3.53;;;2.70;;
5702;SDS011;2876;51.738;10.050;2023-07-29T05:37:09;7.40;;;3.00;;
5702;SDS011;2876;51.738;10.050;2023-07-29T05:43:11;3.13;;;2.53;;
5702;SDS011;2876;51.738;10.050;2023-07-29T05:49:13;3.00;;;2.80;;
5702;SDS011;2876;51.738;10.050;2023-07-29T05:55:15;4.93;;;3.40;;
5702;SDS011;2876;51.738;10.050;2023-07-29T06:01:17;3.57;;;3.27;;
5702;SDS011;2876;51.738;10.050;2023-07-29T06:07:22;3.13;;;2.63;;
5702;SDS011;2876;51.738;10.050;2023-07-29T06:13:25;4.80;;;2.90;;
5702;SDS011;2876;51.738;10.050;2023-07-29T06:19:27;4.40;;;3.30;;
5702;SDS011;2876;51.738;10.050;2023-07-29T06:25:29;7.23;;;3.57;;
5702;SDS011;2876;51.738;10.050;2023-07-29T06:31:31;4.20;;;3.03;;
5702;SDS011;2876;51.738;10.050;2023-07-29T06:37:34;5.43;;;2.70;;
5702;SDS011;2876;51.738;10.050;2023-07-29T06:43:36;5.00;;;2.37;;
5702;SDS011;2876;51.738;10.050;2023-07-29T06:49:38;2.27;;;2.07;;
5702;SDS011;2876;51.738;10.050;2023-07-29T06:55:40;2.43;;;2.23;;
5702;SDS011;2876;51.738;10.050;2023-07-29T07:01:42;2.37;;;2.10;;
5702;SDS011;2876;51.738;10.050;2023-07-29T07:07:44;3.90;;;2.90;;
5702;SDS011;2876;51.738;10.050;2023-07-29T07:13:46;2.70;;;2.50;;
5702;SDS011;2876;51.738;10.050;2023-07-29T07:19:48;2.70;;;2.50;;
5702;SDS011;2876;51.738;10.050;2023-07-29T07:25:50;2.50;;;2.30;;
5702;SDS011;2876;51.738;10.050;2023-07-29T07:31:53;2.90;;;2.53;;
5702;SDS011;2876;51.738;10.050;2023-07-29T07:37:55;2.73;;;2.53;;
5702;SDS011;2876;51.738;10.050;2023-07-29T07:43:57;2.37;;;2.00;;
5702;SDS011;2876;51.738;10.050;2023-07-29T07:49:59;2.60;;;2.40;;
5702;SDS011;2876;51.738;10.050;2023-07-29T07:56:01;3.03;;;2.73;;
5702;SDS011;2876;51.738;10.050;2023-07-29T08:02:03;3.93;;;3.37;;
5702;SDS011;2876;51.738;10.050;2023-07-29T08:08:06;2.90;;;2.70;;
5702;SDS011;2876;51.738;10.050;2023-07-29T08:14:08;4.83;;;3.10;;
5702;SDS011;2876;51.738;10.050;2023-07-29T08:20:10;3.67;;;3.37;;
5702;SDS011;2876;51.738;10.050;2023-07-29T08:26:12;3.40;;;3.10;;
5702;SDS011;2876;51.738;10.050;2023-07-29T08:32:14;3.27;;;3.07;;
5702;SDS011;2876;51.738;10.050;2023-07-29T08:38:16;4.77;;;3.80;;
5702;SDS011;2876;51.738;10.050;2023-07-29T08:44:19;3.80;;;3.50;;
5702;SDS011;2876;51.738;10.050;2023-07-29T08:50:28;4.40;;;4.00;;
5702;SDS011;2876;51.738;10.050;2023-07-29T08:56:33;3.63;;;3.33;;
5702;SDS011;2876;51.738;10.050;2023-07-29T09:02:36;3.07;;;2.83;;
5702;SDS011;2876;51.738;10.050;2023-07-29T09:08:38;3.90;;;3.40;;
5702;SDS011;2876;51.738;10.050;2023-07-29T09:14:40;4.93;;;2.90;;
5702;SDS011;2876;51.738;10.050;2023-07-29T09:20:42;2.50;;;2.30;;
5702;SDS011;2876;51.738;10.050;2023-07-29T09:26:48;4.83;;;2.60;;
5702;SDS011;2876;51.738;10.050;2023-07-29T09:32:55;3.00;;;2.80;;
5702;SDS011;2876;51.738;10.050;2023-07-29T09:38:58;3.00;;;2.80;;
5702;SDS011;2876;51.738;10.050;2023-07-29T09:45:00;3.03;;;2.83;;
5702;SDS011;2876;51.738;10.050;2023-07-29T09:51:09;2.50;;;2.23;;
5702;SDS011;2876;51.738;10.050;2023-07-29T09:57:16;2.60;;;2.37;;
5702;SDS011;2876;51.738;10.050;2023-07-29T10:03:20;3.40;;;2.67;;
5702;SDS011;2876;51.738;10.050;2023-07-29T10:09:23;2.17;;;1.97;;
5702;SDS011;2876;51.738;10.050;2023-07-29T10:15:26;3.73;;;2.20;;
5702;SDS011;2876;51.738;10.050;2023-07-29T10:21:30;2.50;;;2.30;;
5702;SDS011;2876;51.738;10.050;2023-07-29T10:27:35;2.27;;;2.07;;
5702;SDS011;2876;51.738;10.050;2023-07-29T10:34:08;2.47;;;1.80;;
5702;SDS011;2876;51.738;10.050;2023-07-29T10:40:11;4.17;;;2.20;;
5702;SDS011;2876;51.738;10.050;2023-07-29T10:46:17;4.47;;;2.30;;
5702;SDS011;2876;51.738;10.050;2023-07-29T10:52:41;2.07;;;1.70;;
5702;SDS011;2876;51.738;10.050;2023-07-29T10:58:45;2.03;;;1.83;;
5702;SDS011;2876;51.738;10.050;2023-07-29T11:04:49;5.13;;;2.70;;
5702;SDS011;2876;51.738;10.050;2023-07-29T11:10:59;2.50;;;2.30;;
5702;SDS011;2876;51.738;10.050;2023-07-29T11:17:01;3.07;;;2.87;;
5702;SDS011;2876;51.738;10.050;2023-07-29T11:23:03;3.70;;;2.90;;
5702;SDS011;2876;51.738;10.050;2023-07-29T11:29:05;3.97;;;3.10;;
5702;SDS011;2876;51.738;10.050;2023-07-29T11:35:08;3.30;;;3.00;;
5702;SDS011;2876;51.738;10.050;2023-07-29T11:41:19;4.43;;;3.50;;
5702;SDS011;2876;51.738;10.050;2023-07-29T11:47:23;3.60;;;3.23;;
5702;SDS011;2876;51.738;10.050;2023-07-29T11:53:26;3.77;;;3.30;;
5702;SDS011;2876;51.738;10.050;2023-07-29T11:59:31;4.00;;;3.70;;
5702;SDS011;2876;51.738;10.050;2023-07-29T12:05:34;3.27;;;2.97;;
5702;SDS011;2876;51.738;10.050;2023-07-29T12:11:37;3.67;;;3.30;;
5702;SDS011;2876;51.738;10.050;2023-07-29T12:17:39;5.37;;;2.53;;
5702;SDS011;2876;51.738;10.050;2023-07-29T12:23:43;3.07;;;2.80;;
5702;SDS011;2876;51.738;10.050;2023-07-29T12:29:45;3.50;;;3.00;;
5702;SDS011;2876;51.738;10.050;2023-07-29T12:35:50;3.27;;;2.80;;
5702;SDS011;2876;51.738;10.050;2023-07-29T12:41:53;2.13;;;2.03;;
5702;SDS011;2876;51.738;10.050;2023-07-29T12:48:00;3.60;;;2.40;;
5702;SDS011;2876;51.738;10.050;2023-07-29T12:54:02;2.70;;;2.50;;
5702;SDS011;2876;51.738;10.050;2023-07-29T13:00:05;3.27;;;2.20;;
5702;SDS011;2876;51.738;10.050;2023-07-29T13:06:09;1.80;;;1.53;;
5702;SDS011;2876;51.738;10.050;2023-07-29T13:12:11;1.70;;;1.60;;
5702;SDS011;2876;51.738;10.050;2023-07-29T13:18:13;1.50;;;1.40;;
5702;SDS011;2876;51.738;10.050;2023-07-29T13:24:14;1.70;;;1.50;;
5702;SDS011;2876;51.738;10.050;2023-07-29T13:30:16;1.80;;;1.70;;
5702;SDS011;2876;51.738;10.050;2023-07-29T13:36:18;1.53;;;1.43;;
5702;SDS011;2876;51.738;10.050;2023-07-29T13:42:20;1.40;;;1.30;;
5702;SDS011;2876;51.738;10.050;2023-07-29T13:48:22;2.67;;;1.93;;
5702;SDS011;2876;51.738;10.050;2023-07-29T13:54:24;1.97;;;1.27;;
5702;SDS011;2876;51.738;10.050;2023-07-29T14:00:26;2.00;;;1.53;;
5702;SDS011;2876;51.738;10.050;2023-07-29T14:06:29;1.73;;;1.60;;
5702;SDS011;2876;51.738;10.050;2023-07-29T14:12:46;1.60;;;1.50;;
5702;SDS011;2876;51.738;10.050;2023-07-29T14:18:48;1.37;;;1.27;;
5702;SDS011;2876;51.738;10.050;2023-07-29T14:24:50;1.50;;;1.40;;
5702;SDS011;2876;51.738;10.050;2023-07-29T14:30:52;1.70;;;1.50;;
5702;SDS011;2876;51.738;10.050;2023-07-29T14:36:54;1.60;;;1.50;;
5702;SDS011;2876;51.738;10.050;2023-07-29T14:42:56;5.53;;;1.93;;
5702;SDS011;2876;51.738;10.050;2023-07-29T14:48:58;1.50;;;1.40;;
5702;SDS011;2876;51.738;10.050;2023-07-29T14:55:00;1.90;;;1.70;;
5702;SDS011;2876;51.738;10.050;2023-07-29T15:01:02;1.90;;;1.43;;
5702;SDS011;2876;51.738;10.050;2023-07-29T15:07:04;1.90;;;1.80;;
5702;SDS011;2876;51.738;10.050;2023-07-29T15:13:06;1.67;;;1.57;;
5702;SDS011;2876;51.738;10.050;2023-07-29T15:19:08;3.40;;;1.53;;
5702;SDS011;2876;51.738;10.050;2023-07-29T15:25:10;1.60;;;1.50;;
5702;SDS011;2876;51.738;10.050;2023-07-29T15:31:13;1.87;;;1.73;;
5702;SDS011;2876;51.738;10.050;2023-07-29T15:37:15;2.30;;;2.10;;
5702;SDS011;2876;51.738;10.050;2023-07-29T15:43:17;2.00;;;1.80;;
5702;SDS011;2876;51.738;10.050;2023-07-29T15:49:19;1.97;;;1.40;;
5702;SDS011;2876;51.738;10.050;2023-07-29T15:55:22;2.03;;;1.83;;
5702;SDS011;2876;51.738;10.050;2023-07-29T16:01:25;3.93;;;1.67;;
5702;SDS011;2876;51.738;10.050;2023-07-29T16:07:27;1.73;;;1.63;;
5702;SDS011;2876;51.738;10.050;2023-07-29T16:13:29;2.80;;;1.83;;
5702;SDS011;2876;51.738;10.050;2023-07-29T16:19:31;1.80;;;1.70;;
5702;SDS011;2876;51.738;10.050;2023-07-29T16:25:33;5.27;;;1.70;;
5702;SDS011;2876;51.738;10.050;2023-07-29T16:31:35;2.90;;;1.90;;
5702;SDS011;2876;51.738;10.050;2023-07-29T16:37:38;1.93;;;1.83;;
5702;SDS011;2876;51.738;10.050;2023-07-29T16:43:40;2.10;;;1.93;;
5702;SDS011;2876;51.738;10.050;2023-07-29T16:49:42;2.30;;;2.10;;
5702;SDS011;2876;51.738;10.050;2023-07-29T16:55:45;5.03;;;2.07;;
5702;SDS011;2876;51.738;10.050;2023-07-29T17:01:47;2.40;;;2.20;;
5702;SDS011;2876;51.738;10.050;2023-07-29T17:07:49;2.97;;;2.67;;
5702;SDS011;2876;51.738;10.050;2023-07-29T17:13:51;2.17;;;2.00;;
5702;SDS011;2876;51.738;10.050;2023-07-29T17:19:53;2.23;;;2.10;;
5702;SDS011;2876;51.738;10.050;2023-07-29T17:25:55;4.47;;;4.07;;
5702;SDS011;2876;51.738;10.050;2023-07-29T17:31:57;2.53;;;2.27;;
5702;SDS011;2876;51.738;10.050;2023-07-29T17:37:59;2.40;;;2.27;;
5702;SDS011;2876;51.738;10.050;2023-07-29T17:44:03;2.73;;;2.53;;
5702;SDS011;2876;51.738;10.050;2023-07-29T17:50:08;2.70;;;2.30;;
5702;SDS011;2876;51.738;10.050;2023-07-29T17:56:10;3.50;;;2.50;;
5702;SDS011;2876;51.738;10.050;2023-07-29T18:02:12;3.77;;;2.73;;
5702;SDS011;2876;51.738;10.050;2023-07-29T18:08:15;3.33;;;1.97;;
5702;SDS011;2876;51.738;10.050;2023-07-29T18:14:17;5.87;;;2.30;;
5702;SDS011;2876;51.738;10.050;2023-07-29T18:20:19;2.17;;;1.93;;
5702;SDS011;2876;51.738;10.050;2023-07-29T18:26:21;2.90;;;2.53;;
5702;SDS011;2876;51.738;10.050;2023-07-29T18:32:23;3.77;;;2.30;;
5702;SDS011;2876;51.738;10.050;2023-07-29T18:38:25;1.80;;;1.70;;
5702;SDS011;2876;51.738;10.050;2023-07-29T18:44:27;1.90;;;1.80;;
5702;SDS011;2876;51.738;10.050;2023-07-29T18:50:30;4.43;;;2.03;;
5702;SDS011;2876;51.738;10.050;2023-07-29T18:56:41;2.40;;;2.20;;
5702;SDS011;2876;51.738;10.050;2023-07-29T19:02:44;3.30;;;2.97;;
5702;SDS011;2876;51.738;10.050;2023-07-29T19:08:46;3.03;;;2.43;;
5702;SDS011;2876;51.738;10.050;2023-07-29T19:14:50;2.43;;;2.23;;
5702;SDS011;2876;51.738;10.050;2023-07-29T19:20:52;5.67;;;3.10;;
5702;SDS011;2876;51.738;10.050;2023-07-29T19:26:54;3.10;;;2.70;;
5702;SDS011;2876;51.738;10.050;2023-07-29T19:33:00;2.50;;;2.30;;
5702;SDS011;2876;51.738;10.050;2023-07-29T19:39:03;2.60;;;2.40;;
5702;SDS011;2876;51.738;10.050;2023-07-29T19:45:05;4.53;;;2.20;;
5702;SDS011;2876;51.738;10.050;2023-07-29T19:51:08;12.53;;;2.63;;
5702;SDS011;2876;51.738;10.050;2023-07-29T19:57:10;3.50;;;2.80;;
5702;SDS011;2876;51.738;10.050;2023-07-29T20:03:12;6.43;;;3.27;;
5702;SDS011;2876;51.738;10.050;2023-07-29T20:09:15;2.30;;;2.10;;
5702;SDS011;2876;51.738;10.050;2023-07-29T20:15:17;2.70;;;2.50;;
5702;SDS011;2876;51.738;10.050;2023-07-29T20:21:19;3.03;;;2.20;;
5702;SDS011;2876;51.738;10.050;2023-07-29T20:27:21;5.10;;;1.97;;
5702;SDS011;2876;51.738;10.050;2023-07-29T20:33:23;3.40;;;2.10;;
5702;SDS011;2876;51.738;10.050;2023-07-29T20:39:27;2.40;;;2.20;;
5702;SDS011;2876;51.738;10.050;2023-07-29T20:45:30;6.83;;;2.50;;
5702;SDS011;2876;51.738;10.050;2023-07-29T20:51:32;2.27;;;2.07;;
5702;SDS011;2876;51.738;10.050;2023-07-29T21:50:44;3.37;;;2.30;;
5702;SDS011;2876;51.738;10.050;2023-07-29T21:56:50;2.20;;;2.00;;
5702;SDS011;2876;51.738;10.050;2023-07-29T22:02:52;4.27;;;2.27;;
5702;SDS011;2876;51.738;10.050;2023-07-29T22:08:56;4.83;;;2.67;;
5702;SDS011;2876;51.738;10.050;2023-07-29T22:14:58;9.80;;;2.57;;
5702;SDS011;2876;51.738;10.050;2023-07-29T22:21:00;11.17;;;2.60;;
5702;SDS011;2876;51.738;10.050;2023-07-29T22:27:02;2.70;;;2.33;;
5702;SDS011;2876;51.738;10.050;2023-07-29T22:33:05;2.63;;;2.30;;
5702;SDS011;2876;51.738;10.050;2023-07-29T22:39:07;5.00;;;2.50;;
5702;SDS011;2876;51.738;10.050;2023-07-29T22:45:09;3.40;;;2.83;;
5702;SDS011;2876;51.738;10.050;2023-07-29T22:51:11;3.10;;;2.80;;
5702;SDS011;2876;51.738;10.050;2023-07-29T22:57:13;2.80;;;2.60;;
5702;SDS011;2876;51.738;10.050;2023-07-29T23:03:15;3.40;;;2.47;;
5702;SDS011;2876;51.738;10.050;2023-07-29T23:09:18;4.93;;;2.80;;
5702;SDS011;2876;51.738;10.050;2023-07-29T23:15:20;2.60;;;2.40;;
5702;SDS011;2876;51.738;10.050;2023-07-29T23:21:22;3.70;;;2.57;;
5702;SDS011;2876;51.738;10.050;2023-07-29T23:27:24;6.10;;;2.87;;
5702;SDS011;2876;51.738;10.050;2023-07-29T23:33:26;5.17;;;3.13;;
5702;SDS011;2876;51.738;10.050;2023-07-29T23:39:28;10.13;;;2.90;;
5702;SDS011;2876;51.738;10.050;2023-07-29T23:45:30;4.30;;;3.20;;
5702;SDS011;2876;51.738;10.050;2023-07-29T23:51:32;3.60;;;3.30;;
5702;SDS011;2876;51.738;10.050;2023-07-29T23:57:34;3.47;;;3.00;;
